sensor_id;sensor_type;location;lat;lon;timestamp;P1;durP1;ratioP1;P2;durP2;ratioP2
7001;SDS011;3541;53.230;10.518;2023-04-10T00:02:26;28.53;;;18.83;;
7001;SDS011;3541;53.230;10.518;2023-04-10T00:04:52;27.37;;;17.90;;
7001;SDS011;3541;53.230;10.518;2023-04-10T00:07:19;27.93;;;18.50;;
7001;SDS011;3541;53.230;10.518;2023-04-10T00:09:46;28.53;;;18.70;;
7001;SDS011;3541;53.230;10.518;2023-04-10T00:12:13;26.80;;;18.53;;
7001;SDS011;3541;53.230;10.518;2023-04-10T00:14:39;27.47;;;18.80;;
7001;SDS011;3541;53.230;10.518;2023-04-10T00:17:07;29.57;;;18.60;;
7001;SDS011;3541;53.230;10.518;2023-04-10T00:19:34;26.77;;;18.30;;
7001;SDS011;3541;53.230;10.518;2023-04-10T00:22:01;26.37;;;17.90;;
7001;SDS011;3541;53.230;10.518;2023-04-10T00:24:28;26.87;;;16.63;;
7001;SDS011;3541;53.230;10.518;2023-04-10T00:26:54;24.60;;;17.83;;
7001;SDS011;3541;53.230;10.518;2023-04-10T00:29:21;26.17;;;18.00;;
7001;SDS011;3541;53.230;10.518;2023-04-10T00:31:48;23.03;;;16.33;;
7001;SDS011;3541;53.230;10.518;2023-04-10T00:34:16;26.97;;;17.67;;
7001;SDS011;3541;53.230;10.518;2023-04-10T00:36:43;24.70;;;16.80;;
7001;SDS011;3541;53.230;10.518;2023-04-10T00:39:10;24.37;;;16.60;;
7001;SDS011;3541;53.230;10.518;2023-04-10T00:41:37;22.33;;;16.80;;
7001;SDS011;3541;53.230;10.518;2023-04-10T00:44:03;26.13;;;17.50;;
7001;SDS011;3541;53.230;10.518;2023-04-10T00:46:30;25.13;;;16.50;;
7001;SDS011;3541;53.230;10.518;2023-04-10T00:48:59;23.50;;;15.70;;
7001;SDS011;3541;53.230;10.518;2023-04-10T00:51:27;27.33;;;17.10;;
7001;SDS011;3541;53.230;10.518;2023-04-10T00:53:53;23.07;;;16.07;;
7001;SDS011;3541;53.230;10.518;2023-04-10T00:56:20;24.67;;;16.27;;
7001;SDS011;3541;53.230;10.518;2023-04-10T00:58:49;22.67;;;15.83;;
7001;SDS011;3541;53.230;10.518;2023-04-10T01:01:16;24.27;;;15.90;;
7001;SDS011;3541;53.230;10.518;2023-04-10T01:03:42;23.90;;;16.77;;
7001;SDS011;3541;53.230;10.518;2023-04-10T01:06:11;26.37;;;17.10;;
7001;SDS011;3541;53.230;10.518;2023-04-10T01:08:46;24.97;;;16.30;;
7001;SDS011;3541;53.230;10.518;2023-04-10T01:11:23;22.87;;;15.67;;
7001;SDS011;3541;53.230;10.518;2023-04-10T01:14:01;22.93;;;15.70;;
7001;SDS011;3541;53.230;10.518;2023-04-10T01:16:39;23.20;;;15.57;;
7001;SDS011;3541;53.230;10.518;2023-04-10T01:19:12;26.00;;;15.23;;
7001;SDS011;3541;53.230;10.518;2023-04-10T01:21:54;22.87;;;15.87;;
7001;SDS011;3541;53.230;10.518;2023-04-10T01:24:27;24.93;;;16.70;;
7001;SDS011;3541;53.230;10.518;2023-04-10T01:27:16;22.57;;;16.23;;
7001;SDS011;3541;53.230;10.518;2023-04-10T01:29:57;25.87;;;16.93;;
7001;SDS011;3541;53.230;10.518;2023-04-10T01:32:27;23.77;;;16.47;;
7001;SDS011;3541;53.230;10.518;2023-04-10T01:34:58;24.07;;;16.17;;
7001;SDS011;3541;53.230;10.518;2023-04-10T01:37:29;25.20;;;16.30;;
7001;SDS011;3541;53.230;10.518;2023-04-10T01:39:58;22.37;;;15.67;;
7001;SDS011;3541;53.230;10.518;2023-04-10T01:42:27;22.50;;;15.77;;
7001;SDS011;3541;53.230;10.518;2023-04-10T01:44:57;28.00;;;17.33;;
7001;SDS011;3541;53.230;10.518;2023-04-10T01:47:26;21.10;;;15.37;;
7001;SDS011;3541;53.230;10.518;2023-04-10T01:49:52;23.53;;;15.93;;
7001;SDS011;3541;53.230;10.518;2023-04-10T01:52:21;24.50;;;16.63;;
7001;SDS011;3541;53.230;10.518;2023-04-10T01:54:49;25.03;;;16.97;;
7001;SDS011;3541;53.230;10.518;2023-04-10T01:57:17;22.70;;;15.93;;
7001;SDS011;3541;53.230;10.518;2023-04-10T01:59:44;23.30;;;16.93;;
7001;SDS011;3541;53.230;10.518;2023-04-10T02:02:12;26.03;;;15.83;;
7001;SDS011;3541;53.230;10.518;2023-04-10T02:04:39;28.40;;;18.10;;
7001;SDS011;3541;53.230;10.518;2023-04-10T02:07:06;23.47;;;15.70;;
7001;SDS011;3541;53.230;10.518;2023-04-10T02:09:39;26.40;;;16.37;;
7001;SDS011;3541;53.230;10.518;2023-04-10T02:12:20;23.80;;;16.20;;
7001;SDS011;3541;53.230;10.518;2023-04-10T02:14:51;25.57;;;17.23;;
7001;SDS011;3541;53.230;10.518;2023-04-10T02:17:22;23.17;;;16.70;;
7001;SDS011;3541;53.230;10.518;2023-04-10T02:19:53;23.60;;;16.13;;
7001;SDS011;3541;53.230;10.518;2023-04-10T02:22:21;24.40;;;15.70;;
7001;SDS011;3541;53.230;10.518;2023-04-10T02:24:50;23.20;;;15.90;;
7001;SDS011;3541;53.230;10.518;2023-04-10T02:27:25;22.23;;;15.60;;
7001;SDS011;3541;53.230;10.518;2023-04-10T02:29:53;25.50;;;16.07;;
7001;SDS011;3541;53.230;10.518;2023-04-10T02:32:22;25.97;;;16.67;;
7001;SDS011;3541;53.230;10.518;2023-04-10T02:34:49;25.50;;;16.13;;
7001;SDS011;3541;53.230;10.518;2023-04-10T02:37:15;25.20;;;16.47;;
7001;SDS011;3541;53.230;10.518;2023-04-10T02:39:42;23.20;;;16.27;;
7001;SDS011;3541;53.230;10.518;2023-04-10T02:42:08;24.27;;;16.47;;
7001;SDS011;3541;53.230;10.518;2023-04-10T02:44:35;26.10;;;16.57;;
7001;SDS011;3541;53.230;10.518;2023-04-10T02:47:03;23.07;;;16.17;;
7001;SDS011;3541;53.230;10.518;2023-04-10T02:49:31;26.17;;;16.77;;
7001;SDS011;3541;53.230;10.518;2023-04-10T02:51:58;23.20;;;15.90;;
7001;SDS011;3541;53.230;10.518;2023-04-10T02:54:25;27.93;;;16.60;;
7001;SDS011;3541;53.230;10.518;2023-04-10T02:56:52;26.80;;;17.40;;
7001;SDS011;3541;53.230;10.518;2023-04-10T02:59:18;23.43;;;16.57;;
7001;SDS011;3541;53.230;10.518;2023-04-10T03:01:45;24.27;;;16.33;;
7001;SDS011;3541;53.230;10.518;2023-04-10T03:04:12;25.70;;;16.83;;
7001;SDS011;3541;53.230;10.518;2023-04-10T03:06:40;25.87;;;17.47;;
7001;SDS011;3541;53.230;10.518;2023-04-10T03:09:06;25.63;;;17.00;;
7001;SDS011;3541;53.230;10.518;2023-04-10T03:11:33;27.77;;;18.73;;
7001;SDS011;3541;53.230;10.518;2023-04-10T03:13:59;23.47;;;16.20;;
7001;SDS011;3541;53.230;10.518;2023-04-10T03:16:26;25.27;;;17.13;;
7001;SDS011;3541;53.230;10.518;2023-04-10T03:18:52;26.13;;;17.33;;
7001;SDS011;3541;53.230;10.518;2023-04-10T03:21:19;27.47;;;17.17;;
7001;SDS011;3541;53.230;10.518;2023-04-10T03:23:47;26.87;;;17.53;;
7001;SDS011;3541;53.230;10.518;2023-04-10T03:26:14;24.43;;;16.87;;
7001;SDS011;3541;53.230;10.518;2023-04-10T03:28:41;27.27;;;17.53;;
7001;SDS011;3541;53.230;10.518;2023-04-10T03:31:07;26.10;;;18.03;;
7001;SDS011;3541;53.230;10.518;2023-04-10T03:33:34;26.70;;;18.13;;
7001;SDS011;3541;53.230;10.518;2023-04-10T03:36:01;24.37;;;16.93;;
7001;SDS011;3541;53.230;10.518;2023-04-10T03:38:28;28.07;;;16.87;;
7001;SDS011;3541;53.230;10.518;2023-04-10T03:40:56;28.00;;;18.07;;
7001;SDS011;3541;53.230;10.518;2023-04-10T03:43:23;27.37;;;17.30;;
7001;SDS011;3541;53.230;10.518;2023-04-10T03:45:49;24.83;;;16.13;;
7001;SDS011;3541;53.230;10.518;2023-04-10T03:48:16;27.40;;;16.77;;
7001;SDS011;3541;53.230;10.518;2023-04-10T03:50:43;23.40;;;16.60;;
7001;SDS011;3541;53.230;10.518;2023-04-10T03:53:09;25.40;;;17.00;;
7001;SDS011;3541;53.230;10.518;2023-04-10T03:55:36;25.17;;;16.80;;
7001;SDS011;3541;53.230;10.518;2023-04-10T03:58:04;23.20;;;16.37;;
7001;SDS011;3541;53.230;10.518;2023-04-10T04:00:31;26.37;;;17.67;;
7001;SDS011;3541;53.230;10.518;2023-04-10T04:02:57;25.87;;;17.60;;
7001;SDS011;3541;53.230;10.518;2023-04-10T04:05:24;25.73;;;16.83;;
7001;SDS011;3541;53.230;10.518;2023-04-10T04:07:51;23.80;;;16.07;;
7001;SDS011;3541;53.230;10.518;2023-04-10T04:10:18;24.37;;;16.07;;
7001;SDS011;3541;53.230;10.518;2023-04-10T04:12:44;25.57;;;16.60;;
7001;SDS011;3541;53.230;10.518;2023-04-10T04:15:12;24.50;;;16.50;;
7001;SDS011;3541;53.230;10.518;2023-04-10T04:17:39;25.10;;;15.73;;
7001;SDS011;3541;53.230;10.518;2023-04-10T04:20:06;25.20;;;17.30;;
7001;SDS011;3541;53.230;10.518;2023-04-10T04:22:33;26.23;;;17.43;;
7001;SDS011;3541;53.230;10.518;2023-04-10T04:25:00;25.27;;;16.60;;
7001;SDS011;3541;53.230;10.518;2023-04-10T04:27:27;24.47;;;16.43;;
7001;SDS011;3541;53.230;10.518;2023-04-10T04:29:53;25.47;;;17.43;;
7001;SDS011;3541;53.230;10.518;2023-04-10T04:32:21;24.77;;;16.73;;
7001;SDS011;3541;53.230;10.518;2023-04-10T04:34:48;24.33;;;16.47;;
7001;SDS011;3541;53.230;10.518;2023-04-10T04:37:14;27.73;;;17.57;;
7001;SDS011;3541;53.230;10.518;2023-04-10T04:39:41;26.67;;;17.87;;
7001;SDS011;3541;53.230;10.518;2023-04-10T04:42:07;25.90;;;16.83;;
7001;SDS011;3541;53.230;10.518;2023-04-10T04:44:34;29.07;;;18.47;;
7001;SDS011;3541;53.230;10.518;2023-04-10T04:47:00;24.53;;;16.40;;
7001;SDS011;3541;53.230;10.518;2023-04-10T04:49:28;28.17;;;18.00;;
7001;SDS011;3541;53.230;10.518;2023-04-10T04:51:55;27.60;;;18.33;;
7001;SDS011;3541;53.230;10.518;2023-04-10T04:54:21;33.03;;;21.40;;
7001;SDS011;3541;53.230;10.518;2023-04-10T04:56:48;27.93;;;19.10;;
7001;SDS011;3541;53.230;10.518;2023-04-10T04:59:14;36.23;;;25.57;;
7001;SDS011;3541;53.230;10.518;2023-04-10T05:01:41;29.10;;;20.50;;
7001;SDS011;3541;53.230;10.518;2023-04-10T05:04:08;27.17;;;18.63;;
7001;SDS011;3541;53.230;10.518;2023-04-10T05:06:35;28.60;;;18.57;;
7001;SDS011;3541;53.230;10.518;2023-04-10T05:09:02;27.63;;;19.07;;
7001;SDS011;3541;53.230;10.518;2023-04-10T05:11:29;26.93;;;17.83;;
7001;SDS011;3541;53.230;10.518;2023-04-10T05:13:55;26.20;;;17.17;;
7001;SDS011;3541;53.230;10.518;2023-04-10T05:16:22;24.83;;;16.57;;
7001;SDS011;3541;53.230;10.518;2023-04-10T05:18:49;28.43;;;18.07;;
7001;SDS011;3541;53.230;10.518;2023-04-10T05:21:16;26.10;;;17.27;;
7001;SDS011;3541;53.230;10.518;2023-04-10T05:23:43;25.57;;;17.50;;
7001;SDS011;3541;53.230;10.518;2023-04-10T05:26:10;25.17;;;17.73;;
7001;SDS011;3541;53.230;10.518;2023-04-10T05:28:36;26.63;;;17.47;;
7001;SDS011;3541;53.230;10.518;2023-04-10T05:31:03;25.80;;;17.43;;
7001;SDS011;3541;53.230;10.518;2023-04-10T05:33:30;29.10;;;19.50;;
7001;SDS011;3541;53.230;10.518;2023-04-10T05:35:57;27.30;;;18.07;;
7001;SDS011;3541;53.230;10.518;2023-04-10T05:38:23;27.73;;;18.90;;
7001;SDS011;3541;53.230;10.518;2023-04-10T05:40:51;26.23;;;17.87;;
7001;SDS011;3541;53.230;10.518;2023-04-10T05:43:18;25.27;;;17.50;;
7001;SDS011;3541;53.230;10.518;2023-04-10T05:45:45;26.17;;;17.70;;
7001;SDS011;3541;53.230;10.518;2023-04-10T05:48:12;26.57;;;17.60;;
7001;SDS011;3541;53.230;10.518;2023-04-10T05:50:39;27.23;;;17.87;;
7001;SDS011;3541;53.230;10.518;2023-04-10T05:53:05;23.73;;;17.00;;
7001;SDS011;3541;53.230;10.518;2023-04-10T05:55:35;31.10;;;19.67;;
7001;SDS011;3541;53.230;10.518;2023-04-10T05:58:03;29.70;;;19.97;;
7001;SDS011;3541;53.230;10.518;2023-04-10T06:00:30;31.53;;;20.03;;
7001;SDS011;3541;53.230;10.518;2023-04-10T06:02:56;32.33;;;20.43;;
7001;SDS011;3541;53.230;10.518;2023-04-10T06:05:23;32.57;;;20.60;;
7001;SDS011;3541;53.230;10.518;2023-04-10T06:07:50;33.30;;;21.70;;
7001;SDS011;3541;53.230;10.518;2023-04-10T06:10:16;31.20;;;19.03;;
7001;SDS011;3541;53.230;10.518;2023-04-10T06:12:43;28.13;;;18.90;;
7001;SDS011;3541;53.230;10.518;2023-04-10T06:15:11;39.57;;;24.73;;
7001;SDS011;3541;53.230;10.518;2023-04-10T06:17:40;35.27;;;22.10;;
7001;SDS011;3541;53.230;10.518;2023-04-10T06:20:08;46.27;;;26.57;;
7001;SDS011;3541;53.230;10.518;2023-04-10T06:22:35;30.67;;;19.10;;
7001;SDS011;3541;53.230;10.518;2023-04-10T06:25:02;28.50;;;19.17;;
7001;SDS011;3541;53.230;10.518;2023-04-10T06:27:29;26.50;;;18.13;;
7001;SDS011;3541;53.230;10.518;2023-04-10T06:29:56;24.57;;;17.37;;
7001;SDS011;3541;53.230;10.518;2023-04-10T06:32:23;24.73;;;16.83;;
7001;SDS011;3541;53.230;10.518;2023-04-10T06:34:50;24.70;;;17.43;;
7001;SDS011;3541;53.230;10.518;2023-04-10T06:37:17;25.53;;;17.13;;
7001;SDS011;3541;53.230;10.518;2023-04-10T06:39:43;24.67;;;17.80;;
7001;SDS011;3541;53.230;10.518;2023-04-10T06:42:10;24.47;;;16.80;;
7001;SDS011;3541;53.230;10.518;2023-04-10T06:44:36;25.17;;;16.97;;
7001;SDS011;3541;53.230;10.518;2023-04-10T06:47:03;24.53;;;17.00;;
7001;SDS011;3541;53.230;10.518;2023-04-10T06:49:32;23.57;;;17.17;;
7001;SDS011;3541;53.230;10.518;2023-04-10T06:51:58;26.60;;;17.87;;
7001;SDS011;3541;53.230;10.518;2023-04-10T06:54:25;26.40;;;17.97;;
7001;SDS011;3541;53.230;10.518;2023-04-10T06:56:51;24.47;;;17.67;;
7001;SDS011;3541;53.230;10.518;2023-04-10T06:59:22;26.20;;;17.33;;
7001;SDS011;3541;53.230;10.518;2023-04-10T07:01:49;23.93;;;16.30;;
7001;SDS011;3541;53.230;10.518;2023-04-10T07:04:16;23.13;;;16.57;;
7001;SDS011;3541;53.230;10.518;2023-04-10T07:06:43;25.50;;;18.47;;
7001;SDS011;3541;53.230;10.518;2023-04-10T07:09:10;25.97;;;18.90;;
7001;SDS011;3541;53.230;10.518;2023-04-10T07:11:37;24.60;;;16.77;;
7001;SDS011;3541;53.230;10.518;2023-04-10T07:14:03;24.63;;;19.17;;
7001;SDS011;3541;53.230;10.518;2023-04-10T07:16:30;22.40;;;16.47;;
7001;SDS011;3541;53.230;10.518;2023-04-10T07:18:57;23.63;;;17.47;;
7001;SDS011;3541;53.230;10.518;2023-04-10T07:21:24;25.63;;;18.60;;
7001;SDS011;3541;53.230;10.518;2023-04-10T07:23:53;26.63;;;18.80;;
7001;SDS011;3541;53.230;10.518;2023-04-10T07:26:20;24.97;;;16.73;;
7001;SDS011;3541;53.230;10.518;2023-04-10T07:28:46;22.97;;;16.30;;
7001;SDS011;3541;53.230;10.518;2023-04-10T07:31:13;22.40;;;16.43;;
7001;SDS011;3541;53.230;10.518;2023-04-10T07:33:41;24.17;;;16.57;;
7001;SDS011;3541;53.230;10.518;2023-04-10T07:36:10;23.97;;;17.37;;
7001;SDS011;3541;53.230;10.518;2023-04-10T07:38:37;23.30;;;16.27;;
7001;SDS011;3541;53.230;10.518;2023-04-10T07:41:05;21.27;;;16.37;;
7001;SDS011;3541;53.230;10.518;2023-04-10T07:43:33;20.33;;;14.57;;
7001;SDS011;3541;53.230;10.518;2023-04-10T07:46:00;21.80;;;15.83;;
7001;SDS011;3541;53.230;10.518;2023-04-10T07:48:27;24.67;;;16.43;;
7001;SDS011;3541;53.230;10.518;2023-04-10T07:50:53;23.90;;;16.10;;
7001;SDS011;3541;53.230;10.518;2023-04-10T07:53:20;21.83;;;15.47;;
7001;SDS011;3541;53.230;10.518;2023-04-10T07:55:48;21.63;;;15.40;;
7001;SDS011;3541;53.230;10.518;2023-04-10T07:58:16;20.97;;;14.40;;
7001;SDS011;3541;53.230;10.518;2023-04-10T08:00:42;19.67;;;13.90;;
7001;SDS011;3541;53.230;10.518;2023-04-10T08:03:10;20.10;;;14.07;;
7001;SDS011;3541;53.230;10.518;2023-04-10T08:05:37;20.43;;;15.07;;
7001;SDS011;3541;53.230;10.518;2023-04-10T08:08:04;19.17;;;13.53;;
7001;SDS011;3541;53.230;10.518;2023-04-10T08:10:31;20.83;;;14.70;;
7001;SDS011;3541;53.230;10.518;2023-04-10T08:12:57;19.70;;;13.87;;
7001;SDS011;3541;53.230;10.518;2023-04-10T08:15:25;21.43;;;14.23;;
7001;SDS011;3541;53.230;10.518;2023-04-10T08:17:52;18.97;;;14.03;;
7001;SDS011;3541;53.230;10.518;2023-04-10T08:20:18;20.10;;;14.10;;
7001;SDS011;3541;53.230;10.518;2023-04-10T08:22:45;19.10;;;13.87;;
7001;SDS011;3541;53.230;10.518;2023-04-10T08:25:11;19.33;;;13.30;;
7001;SDS011;3541;53.230;10.518;2023-04-10T08:27:39;19.70;;;13.83;;
7001;SDS011;3541;53.230;10.518;2023-04-10T08:30:06;20.00;;;14.17;;
7001;SDS011;3541;53.230;10.518;2023-04-10T08:32:34;17.37;;;13.10;;
7001;SDS011;3541;53.230;10.518;2023-04-10T08:35:01;16.93;;;12.83;;
7001;SDS011;3541;53.230;10.518;2023-04-10T08:37:28;16.77;;;13.17;;
7001;SDS011;3541;53.230;10.518;2023-04-10T08:39:54;18.47;;;13.07;;
7001;SDS011;3541;53.230;10.518;2023-04-10T08:42:22;16.90;;;13.50;;
7001;SDS011;3541;53.230;10.518;2023-04-10T08:44:49;17.97;;;13.27;;
7001;SDS011;3541;53.230;10.518;2023-04-10T08:47:19;18.77;;;13.07;;
7001;SDS011;3541;53.230;10.518;2023-04-10T08:49:50;17.57;;;13.40;;
7001;SDS011;3541;53.230;10.518;2023-04-10T08:52:20;17.23;;;13.13;;
7001;SDS011;3541;53.230;10.518;2023-04-10T08:54:49;16.10;;;12.17;;
7001;SDS011;3541;53.230;10.518;2023-04-10T08:57:18;16.27;;;12.37;;
7001;SDS011;3541;53.230;10.518;2023-04-10T08:59:46;16.37;;;12.87;;
7001;SDS011;3541;53.230;10.518;2023-04-10T09:02:14;15.67;;;12.17;;
7001;SDS011;3541;53.230;10.518;2023-04-10T09:04:41;16.57;;;13.30;;
7001;SDS011;3541;53.230;10.518;2023-04-10T09:07:13;15.83;;;12.20;;
7001;SDS011;3541;53.230;10.518;2023-04-10T09:09:40;16.90;;;12.77;;
7001;SDS011;3541;53.230;10.518;2023-04-10T09:12:06;16.83;;;12.47;;
7001;SDS011;3541;53.230;10.518;2023-04-10T09:14:34;15.83;;;12.40;;
7001;SDS011;3541;53.230;10.518;2023-04-10T09:17:15;17.50;;;12.93;;
7001;SDS011;3541;53.230;10.518;2023-04-10T09:19:43;15.27;;;11.93;;
7001;SDS011;3541;53.230;10.518;2023-04-10T09:22:10;15.77;;;12.50;;
7001;SDS011;3541;53.230;10.518;2023-04-10T09:24:40;14.77;;;12.53;;
7001;SDS011;3541;53.230;10.518;2023-04-10T09:27:08;15.40;;;11.70;;
7001;SDS011;3541;53.230;10.518;2023-04-10T09:29:38;15.07;;;11.97;;
7001;SDS011;3541;53.230;10.518;2023-04-10T09:32:09;14.27;;;12.50;;
7001;SDS011;3541;53.230;10.518;2023-04-10T09:34:50;14.27;;;11.20;;
7001;SDS011;3541;53.230;10.518;2023-04-10T09:37:18;15.37;;;11.70;;
7001;SDS011;3541;53.230;10.518;2023-04-10T09:39:47;15.63;;;12.07;;
7001;SDS011;3541;53.230;10.518;2023-04-10T09:42:14;15.60;;;12.27;;
7001;SDS011;3541;53.230;10.518;2023-04-10T09:44:41;14.73;;;11.93;;
7001;SDS011;3541;53.230;10.518;2023-04-10T09:47:14;16.43;;;12.73;;
7001;SDS011;3541;53.230;10.518;2023-04-10T09:49:43;14.67;;;11.73;;
7001;SDS011;3541;53.230;10.518;2023-04-10T09:52:16;17.50;;;11.30;;
7001;SDS011;3541;53.230;10.518;2023-04-10T09:54:43;15.73;;;12.13;;
7001;SDS011;3541;53.230;10.518;2023-04-10T09:57:12;15.33;;;11.20;;
7001;SDS011;3541;53.230;10.518;2023-04-10T09:59:41;18.17;;;12.00;;
7001;SDS011;3541;53.230;10.518;2023-04-10T10:02:12;15.30;;;12.03;;
7001;SDS011;3541;53.230;10.518;2023-04-10T10:04:40;13.50;;;10.90;;
7001;SDS011;3541;53.230;10.518;2023-04-10T10:07:09;13.97;;;10.93;;
7001;SDS011;3541;53.230;10.518;2023-04-10T10:09:36;13.63;;;10.73;;
7001;SDS011;3541;53.230;10.518;2023-04-10T10:12:03;12.47;;;9.43;;
7001;SDS011;3541;53.230;10.518;2023-04-10T10:14:32;12.57;;;9.93;;
7001;SDS011;3541;53.230;10.518;2023-04-10T10:17:00;11.25;;;9.07;;
7001;SDS011;3541;53.230;10.518;2023-04-10T10:19:36;10.40;;;9.20;;
7001;SDS011;3541;53.230;10.518;2023-04-10T10:22:07;11.17;;;8.37;;
7001;SDS011;3541;53.230;10.518;2023-04-10T10:24:35;10.38;;;8.68;;
7001;SDS011;3541;53.230;10.518;2023-04-10T10:27:05;9.32;;;7.82;;
7001;SDS011;3541;53.230;10.518;2023-04-10T10:29:36;12.02;;;8.70;;
7001;SDS011;3541;53.230;10.518;2023-04-10T10:32:05;9.73;;;8.15;;
7001;SDS011;3541;53.230;10.518;2023-04-10T10:34:33;9.38;;;7.95;;
7001;SDS011;3541;53.230;10.518;2023-04-10T10:37:00;9.25;;;7.30;;
7001;SDS011;3541;53.230;10.518;2023-04-10T10:39:31;8.65;;;6.88;;
7001;SDS011;3541;53.230;10.518;2023-04-10T10:42:08;7.57;;;6.00;;
7001;SDS011;3541;53.230;10.518;2023-04-10T10:44:44;8.73;;;6.18;;
7001;SDS011;3541;53.230;10.518;2023-04-10T10:47:16;7.93;;;5.78;;
7001;SDS011;3541;53.230;10.518;2023-04-10T10:49:51;7.38;;;5.78;;
7001;SDS011;3541;53.230;10.518;2023-04-10T10:52:41;6.28;;;5.20;;
7001;SDS011;3541;53.230;10.518;2023-04-10T10:55:28;5.38;;;4.88;;
7001;SDS011;3541;53.230;10.518;2023-04-10T10:58:02;5.88;;;5.28;;
7001;SDS011;3541;53.230;10.518;2023-04-10T11:03:32;6.18;;;5.38;;
7001;SDS011;3541;53.230;10.518;2023-04-10T11:06:00;8.63;;;6.68;;
7001;SDS011;3541;53.230;10.518;2023-04-10T11:08:40;8.27;;;6.28;;
7001;SDS011;3541;53.230;10.518;2023-04-10T11:11:10;8.55;;;6.50;;
7001;SDS011;3541;53.230;10.518;2023-04-10T11:13:42;8.15;;;7.03;;
7001;SDS011;3541;53.230;10.518;2023-04-10T11:16:44;7.38;;;6.35;;
7001;SDS011;3541;53.230;10.518;2023-04-10T11:19:12;13.75;;;11.18;;
7001;SDS011;3541;53.230;10.518;2023-04-10T11:21:59;18.60;;;14.40;;
7001;SDS011;3541;53.230;10.518;2023-04-10T11:24:26;9.00;;;7.15;;
7001;SDS011;3541;53.230;10.518;2023-04-10T11:26:53;8.73;;;6.72;;
7001;SDS011;3541;53.230;10.518;2023-04-10T11:29:33;7.78;;;6.22;;
7001;SDS011;3541;53.230;10.518;2023-04-10T11:32:01;7.05;;;4.55;;
7001;SDS011;3541;53.230;10.518;2023-04-10T11:34:29;5.78;;;4.68;;
7001;SDS011;3541;53.230;10.518;2023-04-10T11:36:57;5.47;;;4.90;;
7001;SDS011;3541;53.230;10.518;2023-04-10T11:39:24;7.43;;;5.70;;
7001;SDS011;3541;53.230;10.518;2023-04-10T11:41:52;9.05;;;7.05;;
7001;SDS011;3541;53.230;10.518;2023-04-10T11:44:25;6.13;;;4.50;;
7001;SDS011;3541;53.230;10.518;2023-04-10T11:46:53;9.68;;;4.90;;
7001;SDS011;3541;53.230;10.518;2023-04-10T11:49:21;9.70;;;6.18;;
7001;SDS011;3541;53.230;10.518;2023-04-10T11:51:49;5.93;;;4.20;;
7001;SDS011;3541;53.230;10.518;2023-04-10T11:54:17;7.57;;;5.07;;
7001;SDS011;3541;53.230;10.518;2023-04-10T11:56:48;6.18;;;4.28;;
7001;SDS011;3541;53.230;10.518;2023-04-10T11:59:22;5.65;;;4.30;;
7001;SDS011;3541;53.230;10.518;2023-04-10T12:01:49;5.50;;;4.70;;
7001;SDS011;3541;53.230;10.518;2023-04-10T12:04:18;8.10;;;5.45;;
7001;SDS011;3541;53.230;10.518;2023-04-10T12:06:48;5.18;;;4.60;;
7001;SDS011;3541;53.230;10.518;2023-04-10T12:09:17;5.47;;;4.28;;
7001;SDS011;3541;53.230;10.518;2023-04-10T12:11:48;5.93;;;4.93;;
7001;SDS011;3541;53.230;10.518;2023-04-10T12:14:16;8.07;;;6.65;;
7001;SDS011;3541;53.230;10.518;2023-04-10T12:16:44;6.85;;;4.45;;
7001;SDS011;3541;53.230;10.518;2023-04-10T12:19:11;5.95;;;4.63;;
7001;SDS011;3541;53.230;10.518;2023-04-10T12:21:40;8.98;;;5.13;;
7001;SDS011;3541;53.230;10.518;2023-04-10T12:24:07;8.30;;;4.72;;
7001;SDS011;3541;53.230;10.518;2023-04-10T12:26:34;4.90;;;4.38;;
7001;SDS011;3541;53.230;10.518;2023-04-10T12:29:01;6.30;;;4.40;;
7001;SDS011;3541;53.230;10.518;2023-04-10T12:31:30;5.07;;;4.53;;
7001;SDS011;3541;53.230;10.518;2023-04-10T12:33:58;7.97;;;5.07;;
7001;SDS011;3541;53.230;10.518;2023-04-10T12:36:28;6.75;;;5.03;;
7001;SDS011;3541;53.230;10.518;2023-04-10T12:38:57;6.68;;;4.68;;
7001;SDS011;3541;53.230;10.518;2023-04-10T12:41:25;7.75;;;4.75;;
7001;SDS011;3541;53.230;10.518;2023-04-10T12:44:05;8.85;;;5.80;;
7001;SDS011;3541;53.230;10.518;2023-04-10T12:46:33;6.32;;;5.05;;
7001;SDS011;3541;53.230;10.518;2023-04-10T12:49:07;6.82;;;5.80;;
7001;SDS011;3541;53.230;10.518;2023-04-10T12:51:42;8.70;;;5.43;;
7001;SDS011;3541;53.230;10.518;2023-04-10T12:54:30;8.90;;;5.47;;
7001;SDS011;3541;53.230;10.518;2023-04-10T12:56:58;6.57;;;5.75;;
7001;SDS011;3541;53.230;10.518;2023-04-10T12:59:25;7.20;;;6.40;;
7001;SDS011;3541;53.230;10.518;2023-04-10T13:01:53;6.15;;;5.55;;
7001;SDS011;3541;53.230;10.518;2023-04-10T13:04:19;6.28;;;5.35;;
7001;SDS011;3541;53.230;10.518;2023-04-10T13:06:47;5.97;;;5.28;;
7001;SDS011;3541;53.230;10.518;2023-04-10T13:09:16;8.45;;;6.35;;
7001;SDS011;3541;53.230;10.518;2023-04-10T13:11:44;8.93;;;6.22;;
7001;SDS011;3541;53.230;10.518;2023-04-10T13:14:11;7.07;;;6.18;;
7001;SDS011;3541;53.230;10.518;2023-04-10T13:16:37;9.35;;;5.53;;
7001;SDS011;3541;53.230;10.518;2023-04-10T13:19:04;7.80;;;6.15;;
7001;SDS011;3541;53.230;10.518;2023-04-10T13:21:31;6.80;;;6.07;;
7001;SDS011;3541;53.230;10.518;2023-04-10T13:23:57;7.43;;;6.18;;
7001;SDS011;3541;53.230;10.518;2023-04-10T13:26:24;7.40;;;5.85;;
7001;SDS011;3541;53.230;10.518;2023-04-10T13:28:52;8.27;;;6.20;;
7001;SDS011;3541;53.230;10.518;2023-04-10T13:31:19;8.38;;;6.93;;
7001;SDS011;3541;53.230;10.518;2023-04-10T13:33:45;7.88;;;6.35;;
7001;SDS011;3541;53.230;10.518;2023-04-10T13:36:12;7.72;;;6.72;;
7001;SDS011;3541;53.230;10.518;2023-04-10T13:38:39;9.20;;;7.10;;
7001;SDS011;3541;53.230;10.518;2023-04-10T13:41:06;8.35;;;7.13;;
7001;SDS011;3541;53.230;10.518;2023-04-10T13:43:32;8.15;;;6.97;;
7001;SDS011;3541;53.230;10.518;2023-04-10T13:46:00;10.10;;;7.13;;
7001;SDS011;3541;53.230;10.518;2023-04-10T13:48:27;8.35;;;7.32;;
7001;SDS011;3541;53.230;10.518;2023-04-10T13:50:53;8.25;;;7.38;;
7001;SDS011;3541;53.230;10.518;2023-04-10T13:53:20;10.13;;;8.23;;
7001;SDS011;3541;53.230;10.518;2023-04-10T13:55:46;9.82;;;8.20;;
7001;SDS011;3541;53.230;10.518;2023-04-10T13:58:14;9.15;;;7.68;;
7001;SDS011;3541;53.230;10.518;2023-04-10T14:00:41;11.35;;;8.38;;
7001;SDS011;3541;53.230;10.518;2023-04-10T14:03:09;11.38;;;8.07;;
7001;SDS011;3541;53.230;10.518;2023-04-10T14:05:36;9.70;;;8.60;;
7001;SDS011;3541;53.230;10.518;2023-04-10T14:08:02;9.80;;;8.13;;
7001;SDS011;3541;53.230;10.518;2023-04-10T14:10:29;10.45;;;7.55;;
7001;SDS011;3541;53.230;10.518;2023-04-10T14:12:56;8.70;;;7.63;;
7001;SDS011;3541;53.230;10.518;2023-04-10T14:15:22;10.90;;;8.77;;
7001;SDS011;3541;53.230;10.518;2023-04-10T14:17:49;9.70;;;8.02;;
7001;SDS011;3541;53.230;10.518;2023-04-10T14:20:17;9.25;;;7.90;;
7001;SDS011;3541;53.230;10.518;2023-04-10T14:22:43;7.63;;;6.82;;
7001;SDS011;3541;53.230;10.518;2023-04-10T14:25:11;8.27;;;6.47;;
7001;SDS011;3541;53.230;10.518;2023-04-10T14:27:39;7.20;;;6.20;;
7001;SDS011;3541;53.230;10.518;2023-04-10T14:30:06;7.50;;;6.20;;
7001;SDS011;3541;53.230;10.518;2023-04-10T14:32:34;7.68;;;6.28;;
7001;SDS011;3541;53.230;10.518;2023-04-10T14:35:00;6.10;;;5.47;;
7001;SDS011;3541;53.230;10.518;2023-04-10T14:37:29;6.35;;;5.53;;
7001;SDS011;3541;53.230;10.518;2023-04-10T14:39:56;6.78;;;5.38;;
7001;SDS011;3541;53.230;10.518;2023-04-10T14:42:22;7.97;;;5.13;;
7001;SDS011;3541;53.230;10.518;2023-04-10T14:44:49;5.40;;;4.72;;
7001;SDS011;3541;53.230;10.518;2023-04-10T14:47:15;7.38;;;5.35;;
7001;SDS011;3541;53.230;10.518;2023-04-10T14:49:42;5.20;;;4.43;;
7001;SDS011;3541;53.230;10.518;2023-04-10T14:52:08;5.65;;;4.53;;
7001;SDS011;3541;53.230;10.518;2023-04-10T14:54:37;6.22;;;4.43;;